Time;durP1;ratioP1;P1;durP2;ratioP2;P2;SDS_P1;SDS_P2;PMS_P1;PMS_P2;Temp;Humidity;BMP_temperature;BMP_pressure;BME280_temperature;BME280_humidity;BME280_pressure;Samples;Min_cycle;Max_cycle;Signal;HPM_P1;HPM_P2
2022/03/04 00:01:18;;;;;;;31.30;16.67;;;;;;;2.26;57.29;100746.47;6201837;23;20028;-90
2022/03/04 00:04:37;;;;;;;27.98;15.27;;;;;;;2.09;56.88;100728.28;6227305;23;20023;-92
2022/03/04 00:07:29;;;;;;;28.45;15.80;;;;;;;2.16;57.59;100757.88;6197979;23;20036;-93
2022/03/04 00:10:54;;;;;;;;;;;;;;;;;;;;;
2022/03/04 00:21:14;;;;;;;28.70;16.05;;;;;;;1.67;59.13;100705.94;6043485;23;20047;-94
2022/03/04 00:24:13;;;;;;;28.90;16.42;;;;;;;1.70;59.27;100716.38;6093782;23;20038;-94
2022/03/04 00:26:45;;;;;;;29.67;16.15;;;;;;;1.49;59.95;100697.34;6078229;23;20119;-93
2022/03/04 00:29:36;;;;;;;28.02;15.45;;;;;;;1.50;59.46;100713.00;6071994;23;20053;-92
2022/03/04 00:36:02;;;;;;;29.17;16.10;;;;;;;1.67;60.43;100770.34;6064626;23;20025;-93
2022/03/04 00:38:45;;;;;;;30.13;16.42;;;;;;;1.48;60.41;100746.06;6094728;23;20044;-93
2022/03/04 00:41:25;;;;;;;29.88;16.30;;;;;;;1.39;60.64;100740.91;6164247;23;20474;-94
2022/03/04 00:44:39;;;;;;;29.92;16.75;;;;;;;1.35;60.90;100737.44;6183679;23;20061;-93
2022/03/04 00:47:19;;;;;;;31.23;15.95;;;;;;;1.15;60.71;100709.66;6144485;23;20022;-93
2022/03/04 00:49:52;;;;;;;31.58;16.20;;;;;;;1.06;60.80;100697.53;6068705;23;20027;-93
2022/03/04 00:52:57;;;;;;;27.40;16.38;;;;;;;1.15;61.30;100709.66;6041479;23;20087;-93
2022/03/04 00:56:14;;;;;;;28.80;16.25;;;;;;;1.54;60.77;100755.63;6021102;23;20034;-93
2022/03/04 00:59:33;;;;;;;28.67;15.73;;;;;;;1.35;60.81;100739.16;6007051;23;20034;-93
2022/03/04 01:02:18;;;;;;;27.75;16.27;;;;;;;1.40;60.65;100730.44;6013963;23;20082;-93
2022/03/04 01:06:18;;;;;;;27.50;15.20;;;;;;;1.60;60.32;100766.00;6013236;23;20026;-93
2022/03/04 01:10:11;;;;;;;26.15;15.75;;;;;;;1.62;60.07;100762.53;6038352;23;20112;-93
2022/03/04 01:14:01;;;;;;;29.67;15.68;;;;;;;1.61;60.00;100750.34;6051554;23;20029;-93
2022/03/04 01:17:51;;;;;;;;;;;;;;;;;;;;;
2022/03/04 01:32:52;;;;;;;29.42;15.60;;;;;;;1.56;60.27;100730.38;6199199;23;20027;-92
2022/03/04 01:35:52;;;;;;;27.40;15.88;;;;;;;1.33;59.95;100715.69;6162305;23;20024;-92
2022/03/04 01:38:21;;;;;;;28.73;16.25;;;;;;;1.35;60.48;100721.78;6201774;23;20352;-95
2022/03/04 01:40:54;;;;;;;28.92;16.42;;;;;;;1.32;60.63;100706.13;6215729;23;20036;-93
2022/03/04 01:43:25;;;;;;;28.77;16.58;;;;;;;1.34;60.46;100713.94;6215494;23;20075;-92
2022/03/04 01:46:19;;;;;;;28.67;16.45;;;;;;;1.13;60.60;100683.59;6216524;23;20031;-94
2022/03/04 01:49:00;;;;;;;;;;;;;;;;;;;;;
2022/03/04 01:51:34;;;;;;;27.13;15.23;;;;;;;0.99;61.27;100680.16;6201161;23;20025;-92
2022/03/04 01:54:04;;;;;;;29.67;16.17;;;;;;;0.96;61.11;100686.25;6209669;23;20025;-94
2022/03/04 01:56:31;;;;;;;29.80;16.77;;;;;;;0.90;61.51;100661.97;6162646;23;20013;-94
2022/03/04 01:59:01;;;;;;;27.77;15.70;;;;;;;0.85;61.62;100650.69;6214501;23;20075;-93
2022/03/04 02:01:28;;;;;;;19.80;11.70;;;;;;;0.99;61.87;100686.25;6214702;23;20044;-93
2022/03/04 02:03:57;;;;;;;26.50;15.70;;;;;;;1.11;61.65;100694.91;6215890;23;20021;-94
2022/03/04 02:06:36;;;;;;;25.40;15.13;;;;;;;1.26;61.96;100731.38;6193618;23;20118;-94
2022/03/04 02:09:14;;;;;;;24.02;15.07;;;;;;;0.84;61.47;100664.56;6198018;23;20027;-93
2022/03/04 02:11:55;;;;;;;;;;;;;;;;;;;;;
2022/03/04 02:14:32;;;;;;;27.40;16.15;;;;;;;0.84;61.37;100669.78;6194157;23;20358;-94
2022/03/04 02:17:03;;;;;;;29.55;16.23;;;;;;;1.07;60.97;100711.44;6198374;23;20039;-93
2022/03/04 02:19:44;;;;;;;27.67;15.88;;;;;;;1.24;61.34;100738.34;6183713;23;20104;-93
2022/03/04 02:22:21;;;;;;;31.45;15.98;;;;;;;0.88;60.99;100677.59;6196373;23;20020;-92
2022/03/04 02:24:48;;;;;;;30.13;16.73;;;;;;;0.83;61.26;100665.44;6183075;23;20029;-93
2022/03/04 02:27:16;;;;;;;30.00;16.95;;;;;;;1.21;61.42;100730.53;6220291;23;20318;-93
2022/03/04 02:29:48;;;;;;;29.83;16.63;;;;;;;0.76;62.11;100664.63;6220026;23;20095;-93
2022/03/04 02:32:27;;;;;;;28.60;16.40;;;;;;;1.13;61.83;100729.66;6160845;23;20029;-94
2022/03/04 02:35:09;;;;;;;;;;;;;;;;;;;;;
2022/03/04 02:37:53;;;;;;;29.25;16.17;;;;;;;1.12;61.79;100727.94;6186839;23;20032;-94
2022/03/04 02:40:22;;;;;;;29.13;16.48;;;;;;;0.66;62.05;100661.16;6235245;23;20047;-93
2022/03/04 02:43:10;;;;;;;30.63;16.70;;;;;;;0.83;62.15;100705.41;6200880;23;20013;-93
2022/03/04 02:45:56;;;;;;;31.13;17.13;;;;;;;0.73;62.85;100692.44;6216791;23;20033;-94
2022/03/04 02:48:29;;;;;;;30.95;16.05;;;;;;;0.55;62.83;100662.91;6203128;23;20048;-94
2022/03/04 02:50:59;;;;;;;29.05;17.50;;;;;;;0.68;62.67;100687.22;6169385;23;20029;-93
2022/03/04 02:53:26;;;;;;;28.67;16.38;;;;;;;0.68;63.03;100695.91;6228723;23;20024;-93
2022/03/04 02:55:57;;;;;;;;;;;;;;;0.79;63.16;100714.09;6188722;23;20040;-93
2022/03/04 02:58:42;;;;;;;27.27;15.27;;;;;;;0.49;63.76;100669.88;6222010;23;19947;-94
2022/03/04 03:01:12;;;;;;;30.95;16.25;;;;;;;0.81;63.30;100714.09;6220851;23;20222;-93
2022/03/04 03:03:42;;;;;;;;;;;;;;;0.83;63.28;100721.06;6166653;23;20085;-94
2022/03/04 03:06:13;;;;;;;;;;;;;;;0.83;63.24;100722.81;6224453;23;20000;-94
2022/03/04 03:08:40;;;;;;;29.48;16.00;;;;;;;0.49;63.44;100659.44;6223791;23;20293;-93
2022/03/04 03:11:12;;;;;;;;;;;;;;;0.91;63.20;100729.75;6216910;23;20021;-96
2022/03/04 03:13:45;;;;;;;28.25;14.88;;;;;;;0.65;63.42;100689.81;6216511;23;19996;-94
2022/03/04 03:16:24;;;;;;;;;;;;;;;;;;;;;
2022/03/04 03:19:02;;;;;;;31.85;16.02;;;;;;;0.78;63.77;100725.44;6183022;23;20025;-93
2022/03/04 03:21:34;;;;;;;32.75;17.15;;;;;;;0.56;64.03;100700.28;6221815;23;20020;-92
2022/03/04 03:24:19;;;;;;;31.73;17.20;;;;;;;0.26;64.46;100655.16;6195119;23;20039;-93
2022/03/04 03:27:12;;;;;;;31.60;16.95;;;;;;;0.33;64.65;100684.66;6218449;23;20023;-93
2022/03/04 03:30:05;;;;;;;30.77;17.08;;;;;;;0.11;65.19;100662.97;6220062;23;20336;-94
2022/03/04 03:33:03;;;;;;;31.25;16.75;;;;;;;0.39;65.47;100702.03;6220081;23;20020;-92
2022/03/04 03:35:43;;;;;;;30.30;17.30;;;;;;;0.25;65.24;100689.00;6177634;23;20043;-94
2022/03/04 03:38:10;;;;;;;33.28;16.77;;;;;;;0.16;65.82;100687.25;6215726;23;20025;-93
2022/03/04 03:40:45;;;;;;;30.05;17.48;;;;;;;-0.05;65.70;100664.72;6217201;23;20012;-93
2022/03/04 03:43:35;;;;;;;31.48;17.10;;;;;;;-0.16;65.96;100653.41;6217679;23;20025;-93
2022/03/04 03:46:03;;;;;;;31.35;16.90;;;;;;;0.05;66.34;100702.03;6175646;23;20037;-93
2022/03/04 03:48:40;;;;;;;33.47;18.15;;;;;;;0.20;66.44;100733.28;6201587;23;20021;-93
2022/03/04 03:51:12;;;;;;;28.83;17.17;;;;;;;-0.15;66.38;100677.72;6191621;23;20461;-92
2022/03/04 03:54:04;;;;;;;31.02;17.75;;;;;;;0.15;66.87;100741.97;6217053;23;20452;-93
2022/03/04 03:56:34;;;;;;;32.65;17.75;;;;;;;-0.03;66.62;100711.59;6189182;23;20048;-93
2022/03/04 03:59:11;;;;;;;29.88;17.30;;;;;;;-0.17;67.46;100700.28;6216684;23;20091;-93
2022/03/04 04:01:42;;;;;;;32.25;17.23;;;;;;;-0.31;67.55;100689.81;6215902;23;20091;-93
2022/03/04 04:04:24;;;;;;;;;;;;;;;;;;;;;
2022/03/04 04:06:54;;;;;;;32.80;17.33;;;;;;;-0.11;67.61;100737.59;6188341;23;20021;-93
2022/03/04 04:09:30;;;;;;;32.13;18.08;;;;;;;-0.39;67.91;100700.25;6152098;23;20479;-94
2022/03/04 04:12:00;;;;;;;31.63;16.83;;;;;;;-0.32;67.92;100702.88;6175895;23;20048;-93
2022/03/04 04:14:30;;;;;;;29.63;17.08;;;;;;;-0.09;68.25;100750.59;6157829;23;20013;-95
2022/03/04 04:17:05;;;;;;;31.00;17.58;;;;;;;-0.23;68.49;100723.69;6202939;23;20468;-93
2022/03/04 04:19:35;;;;;;;33.47;18.00;;;;;;;-0.30;68.13;100701.09;6217853;23;20075;-92
2022/03/04 04:22:07;;;;;;;33.22;17.60;;;;;;;-0.32;68.31;100702.88;6215453;23;20078;-94
2022/03/04 04:24:52;;;;;;;30.85;18.33;;;;;;;-0.08;68.42;100737.59;6196513;23;20044;-95
2022/03/04 04:27:20;;;;;;;33.10;17.80;;;;;;;-0.10;68.39;100722.84;6200019;23;20024;-92
2022/03/04 04:29:47;;;;;;;33.97;18.05;;;;;;;0.15;68.15;100775.84;6219765;23;20024;-94
2022/03/04 04:32:19;;;;;;;33.55;17.80;;;;;;;-0.04;68.38;100738.47;6217128;23;20084;-94
2022/03/04 04:34:49;;;;;;;32.95;18.48;;;;;;;0.16;68.51;100761.94;6216913;23;20035;-93
2022/03/04 04:37:37;;;;;;;32.58;18.10;;;;;;;0.02;68.34;100756.69;6215254;23;20044;-93
2022/03/04 04:40:07;;;;;;;36.53;18.58;;;;;;;-0.30;68.70;100698.50;6173058;23;20476;-93
2022/03/04 04:42:36;;;;;;;36.05;19.13;;;;;;;-0.26;68.45;100697.66;6217487;23;20075;-93
2022/03/04 04:45:07;;;;;;;36.83;19.70;;;;;;;-0.14;69.29;100726.28;6215846;23;20029;-93
2022/03/04 04:47:39;;;;;;;32.90;18.77;;;;;;;-0.07;69.13;100749.75;6216998;23;20033;-93
2022/03/04 04:50:29;;;;;;;27.85;15.02;;;;;;;-0.15;69.00;100725.41;6194225;23;20024;-94
2022/03/04 04:53:16;;;;;;;;;;;;;;;;;;;;;
2022/03/04 04:55:43;;;;;;;35.95;18.60;;;;;;;-0.16;69.34;100739.31;6232081;23;20035;-96
2022/03/04 04:58:14;;;;;;;36.88;18.90;;;;;;;-0.20;69.54;100734.09;6238072;23;20017;-94
2022/03/04 05:00:46;;;;;;;32.83;18.15;;;;;;;-0.25;69.04;100712.41;6238822;23;20020;-95
2022/03/04 05:03:14;;;;;;;36.70;19.55;;;;;;;0.13;69.64;100762.81;6209885;23;20008;-95
2022/03/04 05:05:45;;;;;;;34.00;18.85;;;;;;;-0.25;69.49;100702.88;6227011;23;20024;-96
2022/03/04 05:08:19;;;;;;;36.65;18.33;;;;;;;0.13;70.09;100773.22;6229647;23;20008;-93
2022/03/04 05:11:11;;;;;;;35.38;19.23;;;;;;;0.04;69.58;100747.16;6229266;23;20486;-93
2022/03/04 05:13:43;;;;;;;34.63;18.25;;;;;;;0.05;69.51;100758.44;6168485;23;20012;-93
2022/03/04 05:16:15;;;;;;;35.72;19.10;;;;;;;-0.06;70.11;100737.59;6189150;23;20032;-93
2022/03/04 05:18:44;;;;;;;;;;;;;;;0.06;70.21;100771.47;6216789;23;20027;-92
2022/03/04 05:21:13;;;;;;;;;;;;;;;0.05;69.97;100766.25;6233393;23;19920;-93
2022/03/04 05:24:00;;;;;;;32.50;17.48;;;;;;;-0.32;70.25;100721.94;6198007;23;19916;-93
2022/03/04 05:26:34;;;;;;;37.05;18.60;;;;;;;-0.29;70.35;100728.88;6226528;23;20332;-93
2022/03/04 05:29:04;;;;;;;37.15;19.98;;;;;;;-0.09;70.72;100771.44;6218543;23;20020;-93
2022/03/04 05:31:52;;;;;;;32.80;18.73;;;;;;;-0.26;70.95;100749.69;6187148;23;20028;-94
2022/03/04 05:34:47;;;;;;;34.10;19.13;;;;;;;-0.49;71.42;100711.50;6162831;23;20027;-94
2022/03/04 05:37:16;;;;;;;38.40;19.30;;;;;;;-0.42;71.28;100731.44;6229196;23;20021;-92
2022/03/04 05:39:59;;;;;;;32.05;18.92;;;;;;;-0.23;71.87;100787.00;6227981;23;20021;-91
2022/03/04 05:42:27;;;;;;;37.58;19.42;;;;;;;-0.68;71.90;100711.44;6200734;23;20152;-92
2022/03/04 05:44:58;;;;;;;34.55;18.90;;;;;;;-0.78;72.38;100711.38;6202905;23;20020;-93
2022/03/04 05:47:50;;;;;;;35.65;18.65;;;;;;;-0.39;72.90;100782.63;6220144;23;20047;-93
2022/03/04 05:50:19;;;;;;;36.65;19.35;;;;;;;-0.62;73.24;100747.84;6206121;23;20011;-93
2022/03/04 05:53:09;;;;;;;36.08;18.75;;;;;;;-0.74;73.72;100730.47;6226364;23;20027;-93
2022/03/04 05:56:05;;;;;;;35.35;19.02;;;;;;;-0.70;73.18;100727.03;6184879;23;20073;-93
2022/03/04 05:58:45;;;;;;;34.00;18.92;;;;;;;-0.65;73.12;100740.06;6219276;23;20012;-94
2022/03/04 06:05:25;;;;;;;37.67;19.27;;;;;;;-0.50;73.06;100779.13;6202773;23;20035;-93
2022/03/04 06:07:54;;;;;;;36.80;19.55;;;;;;;-0.64;73.18;100741.78;6209094;23;20029;-93
2022/03/04 06:10:32;;;;;;;39.15;20.45;;;;;;;-0.47;72.86;100772.19;6179717;23;20021;-93
2022/03/04 06:17:27;;;;;;;36.05;19.63;;;;;;;-0.41;73.66;100793.03;6191829;23;20024;-93
2022/03/04 06:20:21;;;;;;;37.65;19.58;;;;;;;-0.67;73.52;100766.03;6218708;23;20027;-93
2022/03/04 06:30:54;;;;;;;38.00;19.42;;;;;;;-0.17;73.51;100846.91;6222123;23;20108;-92
2022/03/04 06:37:48;;;;;;;36.80;18.95;;;;;;;-0.27;73.44;100818.22;6183074;23;20515;-92
2022/03/04 06:40:15;;;;;;;41.20;20.17;;;;;;;-0.39;73.64;100793.03;6175569;23;20072;-93
2022/03/04 06:43:09;;;;;;;35.42;19.45;;;;;;;-0.31;73.31;100798.25;6192044;23;20064;-92
2022/03/04 06:45:39;;;;;;;36.58;19.05;;;;;;;-0.31;73.16;100799.13;6206436;23;20024;-93
2022/03/04 06:48:11;;;;;;;40.85;20.40;;;;;;;-0.09;72.91;100846.91;6190507;23;20036;-92
2022/03/04 06:50:41;;;;;;;39.10;20.15;;;;;;;-0.24;73.02;100823.44;6215432;23;20016;-92
2022/03/04 06:53:09;;;;;;;38.97;20.13;;;;;;;-0.22;72.75;100830.41;6217915;23;20376;-93
2022/03/04 06:55:41;;;;;;;38.47;20.02;;;;;;;-0.29;73.03;100818.22;6181743;23;20053;-94
2022/03/04 06:58:11;;;;;;;36.88;20.27;;;;;;;-0.08;73.36;100864.28;6207676;23;20020;-93
2022/03/04 07:00:39;;;;;;;39.80;20.58;;;;;;;-0.20;73.59;100841.69;6195231;23;20021;-92
2022/03/04 07:03:08;;;;;;;39.58;20.10;;;;;;;-0.09;74.93;100847.78;6175599;23;20044;-91
2022/03/04 07:05:37;;;;;;;40.55;20.27;;;;;;;-0.18;74.46;100826.94;6218627;23;20021;-93
2022/03/04 07:08:07;;;;;;;39.58;20.77;;;;;;;-0.12;74.80;100833.88;6218625;23;20024;-92
2022/03/04 07:10:45;;;;;;;41.90;21.08;;;;;;;0.11;73.87;100860.00;6151264;23;20012;-94
2022/03/04 07:13:12;;;;;;;41.70;20.98;;;;;;;0.27;72.18;100867.88;6167701;23;20075;-92
2022/03/04 07:15:41;;;;;;;40.78;20.55;;;;;;;0.50;71.72;100911.31;6215543;23;20508;-92
2022/03/04 07:18:09;;;;;;;37.60;19.85;;;;;;;0.47;72.14;100913.94;6213798;23;20029;-93
2022/03/04 07:20:42;;;;;;;44.33;21.67;;;;;;;0.11;72.11;100852.19;6217549;23;20449;-93
2022/03/04 07:23:10;;;;;;;38.78;20.60;;;;;;;0.32;72.24;100889.56;6218693;23;20021;-93
2022/03/04 07:25:37;;;;;;;39.90;20.27;;;;;;;0.44;72.18;100898.31;6192400;23;20028;-91
2022/03/04 07:28:05;;;;;;;38.13;20.02;;;;;;;0.22;72.31;100856.56;6210348;23;20020;-93
2022/03/04 07:30:34;;;;;;;42.50;22.45;;;;;;;0.55;71.94;100901.78;6198341;23;20418;-93
2022/03/04 07:33:04;;;;;;;37.65;20.42;;;;;;;0.40;71.37;100862.69;6185118;23;20028;-93
2022/03/04 07:35:44;;;;;;;38.90;20.75;;;;;;;0.46;71.04;100857.50;6217031;23;20024;-94
2022/03/04 07:38:17;;;;;;;38.10;20.88;;;;;;;0.73;70.54;100880.09;6198703;23;20032;-94
2022/03/04 07:44:13;;;;;;;39.05;19.73;;;;;;;1.04;70.03;100897.47;6228120;23;20021;-94
2022/03/04 07:47:08;;;;;;;;;;;;;;;;;;;;;
2022/03/04 07:50:07;;;;;;;38.20;20.33;;;;;;;1.10;71.44;100868.81;6148856;23;20083;-91
2022/03/04 07:52:56;;;;;;;35.67;20.45;;;;;;;1.59;69.17;100913.91;6176619;23;20052;-92
2022/03/04 07:55:42;;;;;;;35.78;20.80;;;;;;;1.63;68.45;100889.56;6215948;23;20087;-93
2022/03/04 07:58:10;;;;;;;39.15;21.13;;;;;;;1.82;67.11;100913.00;6218035;23;20074;-93
2022/03/04 08:00:40;;;;;;;41.00;20.85;;;;;;;1.60;66.26;100867.81;6215752;23;20029;-94
2022/03/04 08:03:34;;;;;;;37.80;21.48;;;;;;;1.83;67.01;100896.47;6192377;23;20032;-95
2022/03/04 08:06:04;;;;;;;38.42;20.83;;;;;;;1.83;66.64;100896.47;6200872;23;20024;-94
2022/03/04 08:08:33;;;;;;;36.72;21.15;;;;;;;1.89;66.38;100899.06;6177403;23;20017;-92
2022/03/04 08:11:01;;;;;;;41.70;21.30;;;;;;;1.73;66.05;100865.16;6166454;23;20033;-94
2022/03/04 08:13:31;;;;;;;41.50;21.38;;;;;;;1.82;66.06;100885.16;6214276;23;20028;-94
2022/03/04 08:16:08;;;;;;;37.60;20.92;;;;;;;1.75;66.09;100879.06;6163179;23;20029;-93
2022/03/04 08:18:38;;;;;;;42.47;22.00;;;;;;;2.06;66.20;100933.81;6174079;23;20031;-92
2022/03/04 08:21:11;;;;;;;39.28;21.05;;;;;;;1.70;65.83;100869.53;6204360;23;20016;-92
2022/03/04 08:23:38;;;;;;;39.58;20.92;;;;;;;2.09;66.18;100936.41;6182310;23;20412;-91
2022/03/04 08:26:05;;;;;;;40.70;22.30;;;;;;;2.07;65.50;100932.94;6202123;23;20096;-93
2022/03/04 08:28:40;;;;;;;46.42;23.35;;;;;;;2.11;65.72;100929.44;6218709;23;20020;-92
2022/03/04 08:31:11;;;;;;;41.50;21.27;;;;;;;2.02;65.70;100924.25;6180853;23;20021;-93
2022/03/04 08:36:31;;;;;;;42.25;23.13;;;;;;;2.20;67.08;100918.97;6126033;23;20006;-93
2022/03/04 08:39:03;;;;;;;43.75;22.55;;;;;;;2.44;65.38;100934.50;6133514;23;20029;-92
2022/03/04 08:41:32;;;;;;;47.77;22.70;;;;;;;2.23;64.79;100882.34;6117660;23;20054;-92
2022/03/04 08:44:04;;;;;;;38.65;22.60;;;;;;;2.53;65.70;100903.94;6127270;23;20479;-92
2022/03/04 08:46:33;;;;;;;41.42;22.55;;;;;;;3.12;64.73;100940.19;6162604;23;20032;-92
2022/03/04 08:49:02;;;;;;;44.95;24.05;;;;;;;3.39;62.23;100915.50;6149694;23;20056;-93
2022/03/04 08:51:29;;;;;;;43.97;23.70;;;;;;;4.02;59.39;100934.91;6123132;23;20064;-93
2022/03/04 08:59:26;;;;;;;36.40;22.55;;;;;;;5.39;54.61;100904.03;6235785;23;20023;-92
2022/03/04 09:05:47;;;;;;;41.17;23.75;;;;;;;6.62;51.73;100946.28;6187168;23;20026;-92
2022/03/04 09:08:44;;;;;;;41.13;23.77;;;;;;;6.71;49.89;100907.53;6207361;23;20087;-92
2022/03/04 09:11:13;;;;;;;40.15;24.67;;;;;;;6.83;49.30;100907.22;6220139;23;20096;-91
2022/03/04 09:13:42;;;;;;;40.13;23.48;;;;;;;6.93;49.09;100906.09;6237951;23;20460;-93
2022/03/04 09:16:09;;;;;;;35.45;22.95;;;;;;;6.67;49.55;100897.06;6247167;23;20035;-91
2022/03/04 09:18:36;;;;;;;38.42;23.48;;;;;;;6.86;50.24;100915.06;6249181;23;20012;-93
2022/03/04 09:21:04;;;;;;;37.97;23.35;;;;;;;7.11;48.18;100887.22;6243219;23;20460;-93
2022/03/04 09:23:37;;;;;;;41.75;24.67;;;;;;;7.62;47.15;100919.28;6242201;23;20039;-92
2022/03/04 09:26:08;;;;;;;42.45;24.33;;;;;;;7.40;47.88;100916.31;6256552;23;20074;-91
2022/03/04 09:28:36;;;;;;;38.03;24.42;;;;;;;7.51;47.30;100917.84;6236622;23;20034;-93
2022/03/04 09:31:08;;;;;;;41.53;24.58;;;;;;;7.04;47.58;100867.22;6182015;23;20026;-92
2022/03/04 09:33:36;;;;;;;38.95;24.15;;;;;;;7.14;48.37;100924.03;6216006;23;20023;-92
2022/03/04 09:36:05;;;;;;;40.05;24.90;;;;;;;6.61;49.60;100904.25;6248552;23;20049;-93
2022/03/04 09:38:35;;;;;;;39.30;24.55;;;;;;;6.32;49.93;100873.28;6249279;23;20031;-92
2022/03/04 09:41:03;;;;;;;43.80;26.30;;;;;;;6.37;50.45;100910.91;6232770;23;20051;-93
2022/03/04 09:43:32;;;;;;;43.33;25.88;;;;;;;6.57;50.64;100932.38;6211542;23;20024;-94
2022/03/04 09:46:02;;;;;;;41.00;24.98;;;;;;;6.49;50.59;100917.66;6239569;23;20028;-93
2022/03/04 09:48:39;;;;;;;42.70;24.92;;;;;;;6.76;49.98;100903.88;6199310;23;20017;-91
2022/03/04 09:51:14;;;;;;;44.10;25.67;;;;;;;7.22;50.46;100934.38;6201803;23;20020;-92
2022/03/04 09:53:41;;;;;;;43.47;24.60;;;;;;;7.78;48.57;100930.28;6163417;23;20025;-92
2022/03/04 09:56:08;;;;;;;42.85;26.38;;;;;;;8.57;46.34;100925.38;6194620;23;20317;-91
2022/03/04 09:58:37;;;;;;;39.53;24.70;;;;;;;9.07;45.01;100889.47;6167938;23;20528;-92
2022/03/04 10:01:11;;;;;;;46.38;25.55;;;;;;;9.42;43.66;100880.34;6196869;23;20316;-93
2022/03/04 10:03:44;;;;;;;40.65;25.52;;;;;;;9.43;43.90;100875.94;6175266;23;20109;-92
2022/03/04 10:06:11;;;;;;;42.22;25.80;;;;;;;9.74;42.54;100873.94;6207115;23;20105;-92
2022/03/04 10:08:46;;;;;;;42.90;26.17;;;;;;;10.55;41.43;100892.06;6214581;23;20016;-92
2022/03/04 10:11:51;;;;;;;41.15;25.52;;;;;;;10.87;39.78;100880.22;6214374;23;20044;-93
2022/03/04 10:14:21;;;;;;;41.20;25.13;;;;;;;11.01;42.21;100890.28;6185625;23;20021;-92
2022/03/04 10:17:06;;;;;;;42.00;25.77;;;;;;;11.09;39.77;100872.25;6216455;23;20020;-92
2022/03/04 10:19:36;;;;;;;40.78;25.73;;;;;;;10.98;39.98;100870.06;6193616;23;20021;-92
2022/03/04 10:22:18;;;;;;;40.20;25.42;;;;;;;11.50;39.86;100916.44;6204972;23;20032;-92
2022/03/04 10:24:47;;;;;;;42.05;26.63;;;;;;;11.47;38.77;100895.38;6218656;23;20028;-93
2022/03/04 10:27:16;;;;;;;39.63;25.42;;;;;;;11.71;39.08;100895.22;6165836;23;20080;-92
2022/03/04 10:29:48;;;;;;;38.33;25.85;;;;;;;11.86;37.90;100855.66;6205609;23;20048;-92
2022/03/04 10:32:52;;;;;;;43.38;26.70;;;;;;;11.89;37.43;100883.84;6200003;23;20021;-92
2022/03/04 10:35:21;;;;;;;40.58;25.73;;;;;;;12.21;37.07;100885.03;6208945;23;20453;-93
2022/03/04 10:37:52;;;;;;;42.40;25.65;;;;;;;12.39;37.07;100872.72;6214167;23;20075;-93
2022/03/04 10:40:29;;;;;;;37.15;24.88;;;;;;;12.74;36.43;100858.63;6211829;23;20027;-91
2022/03/04 10:43:05;;;;;;;39.28;26.42;;;;;;;13.46;34.64;100900.25;6214246;23;20024;-92
2022/03/04 10:45:45;;;;;;;39.00;26.00;;;;;;;13.28;34.15;100915.34;6215913;23;20033;-92
2022/03/04 10:48:19;;;;;;;44.28;27.00;;;;;;;12.91;35.97;100908.28;6214587;23;20051;-94
2022/03/04 10:50:52;;;;;;;39.65;25.98;;;;;;;12.74;36.52;100855.97;6176012;23;20131;-92
2022/03/04 10:53:30;;;;;;;42.60;26.83;;;;;;;13.23;34.33;100857.06;6216387;23;20024;-96
2022/03/04 10:56:05;;;;;;;41.05;25.92;;;;;;;13.37;35.84;100887.44;6192668;23;20031;-94
2022/03/04 10:58:49;;;;;;;39.65;26.15;;;;;;;13.95;33.95;100886.13;6194252;23;20028;-92
2022/03/04 11:01:19;;;;;;;42.60;27.77;;;;;;;14.19;32.78;100875.94;6200341;23;20016;-93
2022/03/04 11:03:52;;;;;;;39.83;25.40;;;;;;;13.83;33.58;100860.16;6216030;23;20033;-93
2022/03/04 11:06:19;;;;;;;39.08;25.90;;;;;;;14.23;32.45;100874.00;6217133;23;20024;-93
2022/03/04 11:08:47;;;;;;;40.35;26.98;;;;;;;14.22;32.65;100843.81;6220207;23;20040;-93
2022/03/04 11:12:00;;;;;;;41.67;27.42;;;;;;;14.41;32.58;100894.34;6209567;23;20025;-94
2022/03/04 11:14:33;;;;;;;42.88;28.40;;;;;;;14.28;31.91;100856.81;6176769;23;20016;-93
2022/03/04 11:17:01;;;;;;;39.58;26.95;;;;;;;14.31;33.33;100880.63;6193950;23;20025;-92
2022/03/04 11:19:46;;;;;;;41.22;27.70;;;;;;;14.86;31.95;100871.38;6206503;23;20036;-91
2022/03/04 11:22:18;;;;;;;36.08;25.27;;;;;;;16.05;29.53;100871.38;6216651;23;20379;-91
2022/03/04 11:25:03;;;;;;;;;;;;;;;;;;;;;
2022/03/04 11:27:42;;;;;;;36.35;25.73;;;;;;;15.85;29.08;100817.44;6173217;23;20597;-91
2022/03/04 11:30:43;;;;;;;40.10;27.58;;;;;;;16.45;29.13;100869.69;6212696;23;20048;-92
2022/03/04 11:33:41;;;;;;;41.83;27.38;;;;;;;15.39;29.60;100814.91;6210171;23;20024;-92
2022/03/04 11:36:28;;;;;;;37.45;26.77;;;;;;;15.41;30.59;100875.25;6214841;23;20020;-91
2022/03/04 11:39:44;;;;;;;40.10;27.50;;;;;;;14.07;32.16;100860.66;6219202;23;20005;-93
2022/03/04 11:42:42;;;;;;;38.97;27.90;;;;;;;12.86;34.22;100820.81;6214951;23;20123;-94
2022/03/04 11:45:09;;;;;;;;;;;;;;;13.24;34.10;100874.75;6187662;23;20036;-93
2022/03/04 11:47:43;;;;;;;40.13;27.63;;;;;;;13.20;34.57;100882.97;6211804;23;19916;-93
2022/03/04 11:50:34;;;;;;;41.28;28.48;;;;;;;12.71;34.68;100831.34;6197254;23;20033;-93
2022/03/04 11:53:17;;;;;;;45.50;28.75;;;;;;;12.39;36.28;100854.13;6214334;23;20017;-93
2022/03/04 11:56:12;;;;;;;40.72;27.42;;;;;;;11.25;38.35;100858.28;6215099;23;20091;-94
2022/03/04 11:59:09;;;;;;;45.22;28.55;;;;;;;10.60;39.64;100855.69;6158529;23;20039;-95
2022/03/04 12:01:51;;;;;;;43.85;27.95;;;;;;;9.89;39.99;100795.81;6084795;23;20034;-94
2022/03/04 12:04:26;;;;;;;43.15;27.98;;;;;;;9.71;40.60;100781.47;6124661;23;20025;-96
2022/03/04 12:07:09;;;;;;;46.72;29.55;;;;;;;9.93;41.15;100826.50;6112125;23;20429;-93
2022/03/04 12:09:38;;;;;;;45.42;29.20;;;;;;;9.85;40.93;100802.13;6127765;23;20022;-93
2022/03/04 12:12:21;;;;;;;47.10;29.65;;;;;;;9.75;41.60;100828.06;6090079;23;20025;-94
2022/03/04 12:15:17;;;;;;;46.88;28.10;;;;;;;9.74;40.95;100836.91;6124281;23;20025;-96
2022/03/04 12:18:20;;;;;;;48.40;29.30;;;;;;;9.64;40.72;100809.06;6121501;23;20026;-93
2022/03/04 12:20:55;;;;;;;48.78;27.95;;;;;;;9.88;40.61;100835.53;6119719;23;20034;-93
2022/03/04 12:23:45;;;;;;;43.70;27.20;;;;;;;9.62;39.69;100775.66;6118142;23;20533;-92
2022/03/04 12:26:43;;;;;;;47.55;27.85;;;;;;;10.23;39.07;100803.31;6118324;23;20022;-93
2022/03/04 12:29:44;;;;;;;44.90;27.10;;;;;;;10.26;38.21;100803.22;6073355;23;20033;-92
2022/03/04 12:32:55;;;;;;;46.15;28.50;;;;;;;10.73;38.01;100811.03;6147605;23;20017;-92
2022/03/04 12:35:22;;;;;;;46.03;27.58;;;;;;;11.71;36.19;100805.03;6209044;23;20115;-92
2022/03/04 12:37:55;;;;;;;48.47;27.98;;;;;;;13.14;34.89;100816.75;6207159;23;20379;-91
2022/03/04 12:40:32;;;;;;;43.20;27.10;;;;;;;14.56;31.49;100807.34;6191847;23;20018;-94
2022/03/04 12:43:09;;;;;;;38.90;26.13;;;;;;;15.28;30.06;100787.97;6163567;23;20485;-92
2022/03/04 12:45:38;;;;;;;38.60;26.92;;;;;;;16.73;27.82;100833.19;6202513;23;20136;-92
2022/03/04 12:48:32;;;;;;;37.92;26.15;;;;;;;17.35;26.26;100799.53;6195983;23;20024;-91
2022/03/04 12:51:07;;;;;;;37.50;27.42;;;;;;;16.91;27.34;100773.13;6213175;23;20115;-93
2022/03/04 12:53:36;;;;;;;34.63;25.45;;;;;;;17.25;26.74;100765.47;6176500;23;20228;-94
2022/03/04 12:56:05;;;;;;;;;;;;;;;18.35;24.91;100813.00;6205806;23;20100;-93
2022/03/04 12:58:50;;;;;;;35.58;25.35;;;;;;;18.52;24.50;100760.81;6210595;23;19919;-94
2022/03/04 13:01:19;;;;;;;36.60;26.42;;;;;;;19.23;24.45;100795.66;6211531;23;20021;-93
2022/03/04 13:03:50;;;;;;;36.85;27.00;;;;;;;17.94;25.79;100757.03;6208372;23;20075;-93
2022/03/04 13:06:24;;;;;;;38.60;27.42;;;;;;;18.08;24.92;100756.03;6209194;23;20095;-93
2022/03/04 13:08:55;;;;;;;35.88;27.42;;;;;;;18.83;23.75;100789.78;6211130;23;20012;-93
2022/03/04 13:11:25;;;;;;;36.80;25.85;;;;;;;18.95;24.26;100798.72;6186116;23;20028;-93
2022/03/04 13:14:05;;;;;;;37.15;27.27;;;;;;;19.11;23.82;100777.81;6211124;23;20055;-93
2022/03/04 13:16:56;;;;;;;35.20;25.92;;;;;;;19.06;23.98;100777.28;6196579;23;20110;-93
2022/03/04 13:19:36;;;;;;;34.08;25.33;;;;;;;19.46;23.53;100793.03;6213400;23;20021;-92
2022/03/04 13:22:09;;;;;;;34.90;25.98;;;;;;;19.99;22.28;100763.81;6187376;23;20626;-95